createdAt,value
2022-10-26T00:05:25.147Z,56
2022-10-26T00:11:05.238Z,52
2022-10-26T00:16:47.932Z,46
2022-10-26T00:22:28.009Z,52
2022-10-26T00:28:07.822Z,50
2022-10-26T00:33:47.968Z,46
2022-10-26T00:39:27.767Z,46
2022-10-26T00:45:07.646Z,46
2022-10-26T00:50:47.766Z,56
2022-10-26T00:56:27.806Z,48
2022-10-26T01:02:08.069Z,54
2022-10-26T01:07:49.932Z,52
2022-10-26T01:13:31.583Z,50
2022-10-26T01:19:11.559Z,48
2022-10-26T01:24:51.689Z,48
2022-10-26T01:30:31.761Z,48
2022-10-26T01:36:11.811Z,32
2022-10-26T01:41:51.837Z,46
2022-10-26T01:47:31.837Z,50
2022-10-26T01:53:12.091Z,42
2022-10-26T01:58:54.986Z,40
2022-10-26T02:04:35.037Z,48
2022-10-26T02:10:14.877Z,44
2022-10-26T02:15:54.973Z,48
2022-10-26T02:21:35.069Z,54
2022-10-26T02:27:15.032Z,46
2022-10-26T02:32:55.530Z,54
2022-10-26T02:38:35.552Z,40
2022-10-26T02:44:15.366Z,42
2022-10-26T02:49:55.427Z,40
2022-10-26T02:55:35.391Z,52
2022-10-26T03:01:16.111Z,44
2022-10-26T03:06:56.743Z,44
2022-10-26T03:12:37.127Z,54
2022-10-26T03:18:17.574Z,54
2022-10-26T03:23:57.931Z,44
2022-10-26T03:29:38.422Z,54
2022-10-26T03:35:18.614Z,56
2022-10-26T03:41:00.998Z,48
2022-10-26T03:46:41.450Z,54
2022-10-26T03:52:27.962Z,44
2022-10-26T03:58:15.021Z,54
2022-10-26T04:03:57.000Z,54
2022-10-26T04:09:39.428Z,50
2022-10-26T04:15:20.622Z,46
2022-10-26T04:21:01.083Z,52
2022-10-26T04:26:41.867Z,44
2022-10-26T04:32:22.280Z,54
2022-10-26T04:38:02.519Z,56
2022-10-26T04:43:43.705Z,52
2022-10-26T04:49:24.231Z,54
2022-10-26T04:55:05.632Z,58
2022-10-26T05:00:45.970Z,48
2022-10-26T05:06:26.224Z,48
2022-10-26T05:12:06.285Z,56
2022-10-26T05:17:48.340Z,58
2022-10-26T05:23:32.754Z,44
2022-10-26T05:29:13.660Z,56
2022-10-26T05:34:54.571Z,44
2022-10-26T05:40:37.232Z,48
2022-10-26T05:46:17.424Z,48
2022-10-26T05:51:57.664Z,56
2022-10-26T05:57:38.015Z,56
2022-10-26T06:03:18.757Z,46
2022-10-26T06:08:59.449Z,52
2022-10-26T06:14:39.631Z,48
2022-10-26T06:20:20.173Z,44
2022-10-26T06:26:00.593Z,48
2022-10-26T06:31:43.685Z,44
2022-10-26T06:37:24.034Z,46
2022-10-26T06:43:04.146Z,58
2022-10-26T06:48:44.436Z,48
2022-10-26T06:54:24.798Z,44
2022-10-26T07:00:04.922Z,52
2022-10-26T07:05:47.593Z,44
2022-10-26T07:11:30.616Z,56
2022-10-26T07:17:15.704Z,42
2022-10-26T07:22:56.132Z,48
2022-10-26T07:28:37.012Z,46
2022-10-26T07:34:18.263Z,52
2022-10-26T07:40:07.525Z,52
2022-10-26T07:45:48.611Z,54
2022-10-26T07:51:28.839Z,58
2022-10-26T07:57:09.391Z,46
2022-10-26T08:02:50.143Z,46
2022-10-26T08:08:30.538Z,50
2022-10-26T08:14:10.658Z,58
2022-10-26T08:19:50.709Z,48
2022-10-26T08:25:31.573Z,44
2022-10-26T08:31:12.684Z,62
2022-10-26T08:36:53.578Z,46
2022-10-26T08:42:33.990Z,46
2022-10-26T08:48:14.630Z,48
2022-10-26T08:53:54.964Z,52
2022-10-26T08:59:36.194Z,56
2022-10-26T09:05:19.301Z,58
2022-10-26T09:10:59.552Z,8
2022-10-26T09:16:40.305Z,20
2022-10-26T09:22:29.282Z,6
2022-10-26T09:28:09.671Z,10
2022-10-26T09:33:59.188Z,10
2022-10-26T09:39:43.247Z,14
2022-10-26T09:45:23.301Z,14
2022-10-26T09:51:06.461Z,6
2022-10-26T09:56:46.439Z,4
2022-10-26T10:02:26.995Z,6
2022-10-26T10:08:07.406Z,4
2022-10-26T10:13:47.733Z,22
2022-10-26T10:19:27.888Z,10
2022-10-26T10:25:12.522Z,8
2022-10-26T10:30:54.310Z,4
2022-10-26T10:36:38.217Z,2
2022-10-26T10:42:18.780Z,4
2022-10-26T10:47:59.348Z,0
2022-10-26T10:53:39.974Z,0
2022-10-26T10:59:20.921Z,0
2022-10-26T11:05:07.913Z,0
2022-10-26T11:10:48.916Z,0
2022-10-26T11:16:29.618Z,0
2022-10-26T11:22:12.559Z,0
2022-10-26T11:27:53.312Z,8
2022-10-26T11:33:33.611Z,10
2022-10-26T11:39:14.086Z,12
2022-10-26T11:45:03.015Z,8
2022-10-26T11:50:44.775Z,4
2022-10-26T11:56:25.962Z,18
2022-10-26T12:02:06.955Z,8
2022-10-26T12:07:48.903Z,14
2022-10-26T12:13:30.827Z,6
2022-10-26T12:19:16.862Z,6
2022-10-26T12:25:14.916Z,2
2022-10-26T12:30:56.286Z,2
2022-10-26T12:36:38.147Z,14
2022-10-26T12:42:18.708Z,18
2022-10-26T12:48:39.110Z,14
2022-10-26T12:54:20.675Z,8
2022-10-26T13:00:00.740Z,0
2022-10-26T13:05:41.129Z,2
2022-10-26T13:11:21.091Z,0
2022-10-26T13:17:02.054Z,22
2022-10-26T13:22:43.475Z,8
2022-10-26T13:28:30.652Z,24
2022-10-26T13:34:11.904Z,16
2022-10-26T13:39:52.879Z,6
2022-10-26T13:45:33.281Z,16
2022-10-26T13:51:13.028Z,8
2022-10-26T13:56:58.394Z,4
2022-10-26T14:02:38.579Z,12
2022-10-26T14:08:22.007Z,46
2022-10-26T14:14:02.885Z,58
2022-10-26T14:19:45.098Z,24
2022-10-26T14:25:59.753Z,58
2022-10-26T14:31:40.449Z,48
2022-10-26T14:37:20.233Z,46
2022-10-26T14:43:00.548Z,54
2022-10-26T14:48:41.003Z,58
2022-10-26T14:54:21.263Z,44
2022-10-26T15:00:01.957Z,44
2022-10-26T15:05:45.576Z,58
2022-10-26T15:11:25.450Z,58
2022-10-26T15:17:05.390Z,58
2022-10-26T15:22:45.718Z,56
2022-10-26T15:28:25.786Z,52
2022-10-26T15:34:05.667Z,52
2022-10-26T15:39:46.044Z,46
2022-10-26T15:45:26.325Z,46
2022-10-26T15:51:06.574Z,56
2022-10-26T15:56:46.729Z,56
2022-10-26T16:02:27.324Z,48
2022-10-26T16:08:08.313Z,54
2022-10-26T16:13:51.916Z,56
2022-10-26T16:19:32.256Z,58
2022-10-26T16:25:16.141Z,52
2022-10-26T16:30:56.263Z,50
2022-10-26T16:36:36.565Z,46
2022-10-26T16:42:17.125Z,46
2022-10-26T16:47:57.530Z,58
2022-10-26T16:53:37.404Z,54
2022-10-26T16:59:17.356Z,46
2022-10-26T17:05:07.828Z,58
2022-10-26T17:10:48.525Z,58
2022-10-26T17:16:28.402Z,52
2022-10-26T17:22:09.282Z,56
2022-10-26T17:27:52.773Z,46
2022-10-26T17:33:39.337Z,48
2022-10-26T17:39:37.212Z,54
2022-10-26T17:45:55.335Z,54
2022-10-26T17:51:44.292Z,52
2022-10-26T17:57:33.091Z,42
2022-10-26T18:03:18.970Z,56
2022-10-26T18:09:09.794Z,44
2022-10-26T18:15:02.794Z,56
2022-10-26T18:20:51.102Z,50
2022-10-26T18:26:31.124Z,48
2022-10-26T18:32:32.661Z,50
2022-10-26T18:38:24.317Z,56
2022-10-26T18:44:50.333Z,54
2022-10-26T18:50:39.061Z,42
2022-10-26T18:56:28.064Z,46
2022-10-26T19:07:13.660Z,52
2022-10-26T19:13:18.530Z,48
2022-10-26T19:19:11.205Z,56
2022-10-26T19:25:14.036Z,46
2022-10-26T19:31:11.307Z,42
2022-10-26T19:36:51.598Z,42
2022-10-26T19:42:32.116Z,58
2022-10-26T19:48:12.569Z,46
2022-10-26T19:53:52.365Z,44
2022-10-26T19:59:33.458Z,48
2022-10-26T20:05:13.605Z,44
2022-10-26T20:10:54.631Z,44
2022-10-26T20:16:34.638Z,46
2022-10-26T20:22:17.590Z,48
2022-10-26T20:27:57.722Z,46
2022-10-26T20:33:38.116Z,46
2022-10-26T20:39:18.687Z,56
2022-10-26T20:44:58.776Z,58
2022-10-26T20:50:39.399Z,46
2022-10-26T20:56:20.352Z,46
2022-10-26T21:02:00.857Z,50
2022-10-26T21:07:41.685Z,54
2022-10-26T21:13:22.623Z,56
2022-10-26T21:19:03.566Z,58
2022-10-26T21:24:46.410Z,58
2022-10-26T21:30:26.835Z,52
2022-10-26T21:36:06.871Z,50
2022-10-26T21:41:46.917Z,56
2022-10-26T21:47:27.195Z,54
2022-10-26T21:53:07.456Z,46
2022-10-26T21:58:48.169Z,54
2022-10-26T22:04:29.010Z,46
2022-10-26T22:10:12.172Z,44
2022-10-26T22:15:52.348Z,46
2022-10-26T22:21:34.742Z,56
2022-10-26T22:27:14.779Z,52
2022-10-26T22:32:55.412Z,46
2022-10-26T22:38:36.157Z,56
2022-10-26T22:44:16.198Z,56
2022-10-26T22:50:01.751Z,58
2022-10-26T22:55:41.605Z,56
2022-10-26T23:01:22.834Z,52
2022-10-26T23:07:03.427Z,52
2022-10-26T23:12:43.410Z,52
2022-10-26T23:18:26.405Z,44
2022-10-26T23:24:06.270Z,48
2022-10-26T23:29:46.575Z,46
2022-10-26T23:35:26.523Z,58
2022-10-26T23:41:13.515Z,44
2022-10-26T23:46:53.919Z,56
2022-10-26T23:52:34.116Z,54
2022-10-26T23:58:14.651Z,48
